AirNav   SIMCOM
 
 1014 users online  

00M Thigpen Field Airport
Bay Springs, Mississippi, USA

GOING TO BAY SPRINGS?


FAA INFORMATION EFFECTIVE 09 NOVEMBER 2017

Location

FAA Identifier: 00M
Lat/Long: 31-57-13.5000N / 089-14-07.2000W
31-57.225000N / 089-14.120000W
31.9537500 / -89.2353333
(estimated)
Elevation: 351 ft. / 107 m (estimated)
Variation: 02E (1985)
From city: 3 miles SE of BAY SPRINGS, MS
Time zone: UTC -6 (UTC -5 during Daylight Saving Time)
Zip code: 39422

Airport Operations

Airport use: Open to the public
Activation date: 07/1965
Control tower: no
ARTCC: MEMPHIS CENTER
FSS: GREENWOOD FLIGHT SERVICE STATION
NOTAMs facility: GWO (NOTAM-D service available)
Attendance: MON-FRI 0700-1700
Wind indicator: lighted
Segmented circle: yes
Lights: SS-SR
Beacon: white-green (lighted land airport)
Operates sunset to sunrise.

Airport Communications

CTAF: 122.9
WX AWOS-3 at LUL (17 nm S): 119.275 (601-425-9792)

Nearby radio navigation aids

VOR radial/distance  VOR name  Freq  Var
LBYr004/32.5EATON VORTAC110.6005E
MEIr216/33.6MERIDIAN VORTAC117.0005E

 
NDB name  Hdg/Dist  Freq  Var  ID
TALLAHALA352/16.134600ETHJ - .... .---

Airport Services

Parking: tiedowns
Bottled oxygen: NONE
Bulk oxygen: NONE

Runway Information

Runway 16/34

Dimensions: 3000 x 50 ft. / 914 x 15 m
Surface: asphalt, in fair condition
Weight bearing capacity: 
Single wheel: 8.0
Runway edge lights: medium intensity
RUNWAY 16  RUNWAY 34
Latitude: 31-57.458397N31-56.990420N
Longitude: 089-14.213923W089-14.025057W
Elevation: 329.6 ft.358.2 ft.
Gradient: 1.1%1.1%
Traffic pattern: leftleft
Runway heading: 159 magnetic, 161 true339 magnetic, 341 true
Markings: basic, in good conditionbasic, in good condition
Obstructions: 65 ft. tree, 1980 ft. from runway, 250 ft. right of centerline, 27:1 slope to clear165 ft. trees, 4000 ft. from runway, 23:1 slope to clear

Airport Ownership and Management from official FAA records

Ownership: Publicly-owned
Owner: CITY OF BAY SPRINGS
PO BOX 307
BAY SPRINGS, MS 39422
Phone 601-764-4112
Manager: KENDRICK BLAKENEY
PO BOX 307
BAY SPRINGS, MS 39422
Phone 601-764-8482
MGR MAY BE REACHED AFTER HRS AT (601) 764-2572.

Airport Operational Statistics

Aircraft based on the field: 2
Single engine airplanes: 1
Multi engine airplanes: 1
    
Aircraft operations: avg 107/week *
65% transient general aviation
35% local general aviation
* for 12-month period ending 15 March 2017

Additional Remarks

PUBLIC PHONE AT ARPT 601-764-2558.
TREES ON EAST AND WEST SIDES OF RY VIOLATE TRANSITIONAL SFC.

Instrument Procedures

There are no published instrument procedures at 00M.

Some nearby airports with instrument procedures:

KLUL - Hesler-Noble Field Airport (17 nm S)
17M - Magee Municipal Airport (29 nm W)
KPIB - Hattiesburg/Laurel Regional Airport (30 nm S)
KMEI - Key Field Airport (33 nm NE)
M43 - Prentiss-Jefferson Davis County Airport (40 nm SW)
 
Loc | Ops | Rwys | IFR | FBO | Links
Com | Nav | Svcs | Stats | Notes


 
Area around 00M (Thigpen Field Airport)
 
Road maps at: MapQuest Bing Google
 
Aerial photo
WARNING: Photo may not be current or correct
Aerial photo of 00M (Thigpen Field Airport)
Do you have a better or more recent aerial photo of Thigpen Field Airport that you would like to share? If so, please send us your photo.

 
Sectional chart

 
Airport distance calculator
Flying to Thigpen Field Airport? Find the distance to fly.

From to 00M

Sunrise and sunset
Times for 18-Nov-2017
 Local
(UTC-6)
 Zulu
(UTC)
Morning civil twilight06:0312:03
Sunrise06:2912:29
Sunset16:5522:55
Evening civil twilight17:2123:21

Current date and time
Zulu (UTC)  18-Nov-2017 21:08:12
Local (UTC-6)  18-Nov-2017 15:08:12
 
METAR
KPIB 
30nm S 
182056Z AUTO 20008KT 180V240 10SM BKN070 25/19 A2980 RMK AO2 SLP089 T02500189 56016
KLUL 
30nm S 
182055Z AUTO 22012G18KT 10SM SCT040 SCT055 OVC070 25/17 A2980 RMK AO2 T02520170
KMEI 
34nm NE 
182058Z AUTO 20014G21KT 10SM OVC070 26/18 A2974 RMK AO2 SLP069 T02560183 56020
KHBG 
41nm S 
182053Z AUTO 22010KT 10SM FEW044 BKN060 OVC075 26/18 A2981 RMK AO2 SLP093 T02560183 56014
KJAN 
48nm NW 
182054Z 22014KT 10SM SCT038 SCT047 OVC070 27/18 A2974 RMK AO2 SLP067 T02670183 55013
KNMM 
49nm NE 
180956Z AUTO 16005KT 7SM FEW027 17/16 A2991 RMK AO2 SLP137 T01670156
K0R0 
49nm SW 
182055Z AUTO 21011G16KT 10SM FEW040 FEW047 BKN075 26/19 A2983 RMK AO2
TAF
KMEI 
34nm NE 
181749Z 1818/1918 20017G25KT P6SM SCT025 OVC035 FM182300 24017G26KT P6SM VCSH BKN020 OVC030 FM190200 31020G29KT P6SM OVC025 FM190500 34014G20KT P6SM BKN035 FM190900 35010KT P6SM SKC
KHBG 
41nm S 
181749Z 1818/1918 22016G24KT P6SM BKN030 OVC045 FM190000 24016G26KT P6SM VCSH BKN020 OVC030 FM190300 32013G25KT P6SM OVC025 FM190600 34011G19KT P6SM BKN035 FM191000 35010KT P6SM SKC
NOTAMs
Click for the latest NOTAMs
NOTAMs are issued by the DoD/FAA and will open in a separate window not controlled by AirNav.

 

 
 

Would you like to see your business listed on this page?

 If your business provides an interesting product or service to pilots, flight crews, aircraft, or users of the Thigpen Field Airport, you should consider listing it here.  To start the listing process, click on the button below
 
Add a business
 

Other Pages about Thigpen Field Airport

Update a link
 
Copyright © AirNav, LLC. All rights reserved. Privacy Policy  Contact